Time;durP1;ratioP1;P1;durP2;ratioP2;P2;SDS_P1;SDS_P2;PMS_P1;PMS_P2;Temp;Humidity;BMP_temperature;BMP_pressure;BME280_temperature;BME280_humidity;BME280_pressure;Samples;Min_cycle;Max_cycle;Signal;HPM_P1;HPM_P2
2023/01/21 00:00:26;;;;;;;18.90;9.35;;;;;;;0.88;76.16;100410.66;7349542;19;20028;-74
2023/01/21 00:02:50;;;;;;;15.55;8.05;;;;;;;0.91;76.30;100425.44;7353690;19;20021;-71
2023/01/21 00:05:15;;;;;;;20.63;8.82;;;;;;;1.04;75.91;100414.69;7351925;19;20074;-72
2023/01/21 00:07:40;;;;;;;14.70;6.82;;;;;;;0.98;75.74;100417.44;7345109;19;20007;-73
2023/01/21 00:10:04;;;;;;;14.60;8.77;;;;;;;0.87;75.74;100418.56;7346421;19;20002;-73
2023/01/21 00:12:29;;;;;;;16.63;7.82;;;;;;;0.93;75.56;100421.91;7352969;19;20007;-70
2023/01/21 00:14:54;;;;;;;17.88;6.18;;;;;;;1.08;75.70;100420.75;7354065;19;20070;-75
2023/01/21 00:17:18;;;;;;;16.45;7.28;;;;;;;1.05;74.89;100412.91;7346406;19;19998;-74
2023/01/21 00:19:43;;;;;;;14.02;7.65;;;;;;;0.94;74.68;100433.28;7348364;19;20019;-74
2023/01/21 00:22:08;;;;;;;13.55;7.13;;;;;;;0.95;75.01;100425.38;7346840;19;20002;-73
2023/01/21 00:24:32;;;;;;;19.45;8.68;;;;;;;0.94;74.49;100434.16;7345562;19;20019;-71
2023/01/21 00:26:57;;;;;;;8.80;4.43;;;;;;;1.09;74.47;100418.09;7345822;19;20014;-73
2023/01/21 00:29:22;;;;;;;16.80;7.85;;;;;;;1.00;72.92;100418.28;7345190;19;20015;-74
2023/01/21 00:31:47;;;;;;;13.00;6.82;;;;;;;0.93;72.51;100421.91;7345239;19;20006;-73
2023/01/21 00:34:12;;;;;;;14.60;6.15;;;;;;;0.92;72.78;100419.31;7346133;19;20018;-75
2023/01/21 00:36:37;;;;;;;17.27;6.32;;;;;;;0.75;72.98;100416.16;7371525;19;20011;-73
2023/01/21 00:39:02;;;;;;;15.43;6.18;;;;;;;0.72;73.24;100422.34;7375256;19;20002;-75
2023/01/21 00:41:27;;;;;;;9.93;5.90;;;;;;;0.65;73.65;100418.97;7371333;19;20010;-74
2023/01/21 00:43:52;;;;;;;19.35;6.55;;;;;;;0.66;73.62;100427.72;7369080;19;20006;-71
2023/01/21 00:46:17;;;;;;;4.40;3.50;;;;;;;0.86;73.51;100430.81;7373402;19;20030;-71
2023/01/21 00:48:41;;;;;;;8.38;3.67;;;;;;;0.91;72.42;100428.06;7371759;19;20028;-71
2023/01/21 00:51:07;;;;;;;10.82;5.18;;;;;;;0.86;72.44;100428.19;7377972;19;20022;-76
2023/01/21 00:53:34;;;;;;;13.07;7.05;;;;;;;0.74;71.79;100433.66;7358030;19;20013;-73
2023/01/21 00:56:01;;;;;;;13.35;5.97;;;;;;;0.66;72.13;100443.44;7357582;19;20444;-74
2023/01/21 00:58:26;;;;;;;8.27;4.10;;;;;;;0.94;71.19;100454.28;7375464;19;20006;-74
2023/01/21 01:00:59;;;;;;;9.73;5.85;;;;;;;0.92;70.37;100435.94;7366846;19;20740;-79
2023/01/21 01:03:24;;;;;;;10.48;5.68;;;;;;;0.66;70.79;100439.06;7352043;19;20420;-75
2023/01/21 01:05:48;;;;;;;15.30;6.07;;;;;;;0.67;71.15;100443.44;7357005;19;20021;-73
2023/01/21 01:08:13;;;;;;;10.75;5.00;;;;;;;0.58;71.44;100440.09;7362731;19;20010;-75
2023/01/21 01:10:38;;;;;;;9.85;4.95;;;;;;;0.54;71.55;100451.53;7375697;19;20002;-72
2023/01/21 01:13:02;;;;;;;13.68;5.03;;;;;;;0.49;71.96;100440.25;7377235;19;20025;-73
2023/01/21 01:15:27;;;;;;;8.85;4.72;;;;;;;0.55;71.69;100450.66;7354824;19;20088;-73
2023/01/21 01:17:51;;;;;;;10.32;4.85;;;;;;;0.68;70.82;100452.13;7351926;19;20025;-74
2023/01/21 01:20:16;;;;;;;10.63;4.28;;;;;;;0.59;70.35;100447.94;7354972;19;20041;-72
2023/01/21 01:22:41;;;;;;;7.43;4.22;;;;;;;0.56;70.29;100441.91;7352169;19;20002;-74
2023/01/21 01:25:06;;;;;;;18.52;4.68;;;;;;;0.49;70.18;100453.38;7349352;19;20090;-77
2023/01/21 01:27:30;;;;;;;8.60;4.95;;;;;;;0.62;70.09;100466.25;7351338;19;20074;-76
2023/01/21 01:29:55;;;;;;;8.98;4.30;;;;;;;0.47;69.84;100463.88;7353231;19;20017;-74
2023/01/21 01:32:20;;;;;;;11.48;5.07;;;;;;;0.49;69.71;100459.47;7348455;19;20011;-75
2023/01/21 01:34:45;;;;;;;7.03;4.60;;;;;;;0.34;69.57;100463.22;7349680;19;20411;-73
2023/01/21 01:37:09;;;;;;;12.90;4.15;;;;;;;0.32;70.07;100458.91;7352415;19;20011;-73
2023/01/21 01:39:34;;;;;;;9.20;4.47;;;;;;;0.50;70.14;100462.97;7354707;19;20010;-72
2023/01/21 01:41:59;;;;;;;9.32;3.55;;;;;;;0.42;70.11;100470.13;7359855;19;20436;-72
2023/01/21 01:44:56;;;;;;;11.40;4.15;;;;;;;0.73;69.52;100464.28;7356176;19;20442;-74
2023/01/21 01:47:26;;;;;;;10.95;4.00;;;;;;;0.38;68.83;100477.16;7353739;19;20014;-73
2023/01/21 01:49:51;;;;;;;10.75;3.92;;;;;;;0.28;69.42;100476.47;7359519;19;20014;-73
2023/01/21 01:52:17;;;;;;;8.43;3.67;;;;;;;0.20;69.53;100473.09;7355072;19;20007;-75
2023/01/21 01:54:47;;;;;;;5.40;2.38;;;;;;;0.35;69.90;100488.56;7356229;19;20428;-71
2023/01/21 01:57:16;;;;;;;7.35;4.32;;;;;;;0.27;69.99;100489.59;7350767;19;20035;-71
2023/01/21 01:59:42;;;;;;;5.20;3.38;;;;;;;0.35;68.44;100485.94;7362629;19;20101;-77
2023/01/21 02:02:10;;;;;;;6.60;4.18;;;;;;;0.17;68.76;100491.50;7363442;19;20459;-77
2023/01/21 02:04:46;;;;;;;5.15;3.30;;;;;;;0.12;68.97;100503.78;7364220;19;20400;-78
2023/01/21 02:07:11;;;;;;;6.75;3.75;;;;;;;0.18;68.90;100503.72;7363869;19;20006;-77
2023/01/21 02:09:36;;;;;;;7.55;4.03;;;;;;;0.12;68.93;100516.91;7356060;19;20042;-78
2023/01/21 02:12:03;;;;;;;7.25;4.28;;;;;;;0.03;68.75;100505.69;7350044;19;20382;-73
2023/01/21 02:14:30;;;;;;;10.35;4.05;;;;;;;0.00;69.34;100517.13;7350511;19;20035;-72
2023/01/21 02:17:27;;;;;;;9.32;3.10;;;;;;;0.03;69.90;100513.56;7349867;19;20018;-75
2023/01/21 02:20:28;;;;;;;10.98;4.22;;;;;;;0.06;70.32;100511.78;7351207;19;20012;-73
2023/01/21 02:23:11;;;;;;;2.20;1.42;;;;;;;0.19;70.64;100515.06;7349822;19;20082;-71
2023/01/21 02:25:54;;;;;;;10.15;3.45;;;;;;;-0.01;69.26;100518.88;7345852;19;20006;-72
2023/01/21 02:28:41;;;;;;;8.25;3.53;;;;;;;-0.05;69.83;100521.53;7354623;19;20127;-71
2023/01/21 02:31:24;;;;;;;7.28;3.53;;;;;;;-0.13;69.57;100523.41;7351098;19;20031;-72
2023/01/21 02:34:01;;;;;;;5.38;3.42;;;;;;;-0.02;70.19;100526.75;7349520;19;20014;-68
2023/01/21 02:36:35;;;;;;;5.22;3.00;;;;;;;-0.04;70.37;100528.53;7346545;19;20059;-72
2023/01/21 02:39:26;;;;;;;9.25;3.85;;;;;;;-0.02;69.79;100532.00;7348618;19;20021;-73
2023/01/21 02:42:22;;;;;;;9.88;4.40;;;;;;;0.11;69.44;100535.31;7346126;19;20327;-74
2023/01/21 02:45:19;;;;;;;7.20;3.47;;;;;;;-0.03;69.17;100541.59;7348560;19;20365;-73
2023/01/21 02:48:09;;;;;;;7.35;3.60;;;;;;;-0.12;68.76;100538.25;7345972;19;20014;-73
2023/01/21 02:50:39;;;;;;;11.05;3.25;;;;;;;-0.02;68.52;100547.72;7344715;19;20018;-70
2023/01/21 02:53:04;;;;;;;11.52;3.63;;;;;;;-0.10;68.11;100566.16;7344954;19;20025;-72
2023/01/21 02:55:35;;;;;;;14.13;4.32;;;;;;;-0.02;67.95;100552.97;7345493;19;20087;-72
2023/01/21 02:58:07;;;;;;;7.35;2.22;;;;;;;-0.04;67.68;100547.75;7347782;19;20470;-71
2023/01/21 03:00:43;;;;;;;7.47;3.63;;;;;;;-0.15;67.88;100554.00;7347209;19;20014;-73
2023/01/21 03:03:13;;;;;;;11.60;4.85;;;;;;;-0.23;67.52;100554.13;7347190;19;20042;-73
2023/01/21 03:05:59;;;;;;;13.00;3.78;;;;;;;-0.32;66.96;100562.06;7345998;19;20018;-71
2023/01/21 03:08:32;;;;;;;15.32;3.50;;;;;;;-0.36;67.49;100570.88;7350126;19;20372;-72
2023/01/21 03:11:34;;;;;;;6.97;4.20;;;;;;;-0.38;67.61;100560.41;7345139;19;20018;-72
2023/01/21 03:17:53;;;;;;;10.65;2.95;;;;;;;-0.24;69.05;100562.00;7343709;19;20036;-75
2023/01/21 03:20:24;;;;;;;9.20;2.47;;;;;;;-0.18;68.75;100572.38;7343508;19;20007;-77
2023/01/21 03:22:54;;;;;;;5.00;2.35;;;;;;;-0.11;68.22;100568.78;7346097;19;20010;-75
2023/01/21 03:25:21;;;;;;;12.40;3.60;;;;;;;-0.26;66.54;100571.63;7348106;19;20011;-74
2023/01/21 03:27:48;;;;;;;8.77;3.95;;;;;;;-0.46;66.33;100575.38;7353348;19;20028;-74
2023/01/21 03:30:16;;;;;;;6.78;3.90;;;;;;;-0.50;66.93;100570.16;7352121;19;20386;-74
2023/01/21 03:32:45;;;;;;;8.25;3.80;;;;;;;-0.49;67.46;100577.16;7352744;19;20439;-73
2023/01/21 03:35:13;;;;;;;9.45;3.58;;;;;;;-0.42;67.54;100581.41;7352239;19;20018;-74
2023/01/21 03:37:45;;;;;;;10.60;4.18;;;;;;;-0.52;67.33;100588.53;7347282;19;20065;-73
2023/01/21 03:40:14;;;;;;;9.30;3.35;;;;;;;-0.51;67.43;100579.78;7350943;19;20010;-77
2023/01/21 03:42:41;;;;;;;16.65;3.85;;;;;;;-0.54;67.89;100584.19;7350563;19;20445;-78
2023/01/21 03:45:07;;;;;;;8.80;3.42;;;;;;;-0.59;67.77;100597.34;7350400;19;20033;-74
2023/01/21 03:47:37;;;;;;;8.23;3.70;;;;;;;-0.61;67.71;100583.38;7352685;19;20020;-77
2023/01/21 03:50:09;;;;;;;2.90;2.17;;;;;;;-0.43;67.85;100591.03;7348791;19;20469;-74
2023/01/21 03:52:37;;;;;;;15.10;4.03;;;;;;;-0.57;66.99;100586.84;7348328;19;20069;-73
2023/01/21 03:55:02;;;;;;;8.15;3.72;;;;;;;-0.69;66.92;100592.22;7346846;19;20287;-75
2023/01/21 03:57:27;;;;;;;10.98;3.88;;;;;;;-0.72;67.29;100585.25;7352198;19;20014;-69
2023/01/21 03:59:52;;;;;;;9.18;3.60;;;;;;;-0.70;67.73;100593.97;7347746;19;20018;-71
2023/01/21 04:02:19;;;;;;;6.93;3.28;;;;;;;-0.51;67.46;100592.88;7344174;19;20019;-70
2023/01/21 04:04:43;;;;;;;9.43;3.03;;;;;;;-0.43;67.24;100604.13;7351490;19;20028;-71
2023/01/21 04:07:08;;;;;;;4.80;3.17;;;;;;;-0.50;67.21;100602.47;7351921;19;20002;-70
2023/01/21 04:09:32;;;;;;;7.35;4.18;;;;;;;-0.53;65.85;100606.88;7354040;19;20022;-72
2023/01/21 04:11:59;;;;;;;5.35;3.40;;;;;;;-0.51;66.23;100613.84;7352589;19;20011;-74
2023/01/21 04:14:23;;;;;;;8.23;3.85;;;;;;;-0.65;65.84;100622.72;7347948;19;20010;-75
2023/01/21 04:16:48;;;;;;;12.18;4.00;;;;;;;-0.68;65.87;100618.41;7354607;19;20014;-73
2023/01/21 04:19:13;;;;;;;10.13;3.92;;;;;;;-0.82;66.32;100618.53;7350950;19;20125;-73
2023/01/21 04:21:37;;;;;;;7.57;3.80;;;;;;;-0.75;66.69;100621.94;7351847;19;20018;-73
2023/01/21 04:24:02;;;;;;;6.20;3.00;;;;;;;-0.75;67.02;100627.19;7355145;19;20018;-74
2023/01/21 04:26:26;;;;;;;5.80;2.70;;;;;;;-0.81;66.92;100620.25;7361538;19;20022;-73
2023/01/21 04:28:51;;;;;;;7.65;3.55;;;;;;;-0.68;66.14;100633.25;7360264;19;20007;-74
2023/01/21 04:31:16;;;;;;;19.20;6.28;;;;;;;-0.70;65.36;100628.00;7362053;19;20023;-72
2023/01/21 04:33:40;;;;;;;8.55;2.65;;;;;;;-0.68;66.13;100641.09;7356820;19;20029;-71
2023/01/21 04:36:05;;;;;;;8.88;3.58;;;;;;;-0.68;65.09;100643.72;7349763;19;20030;-73
2023/01/21 04:38:30;;;;;;;3.30;2.03;;;;;;;-0.65;65.13;100649.75;7348457;19;20007;-73
2023/01/21 04:40:57;;;;;;;7.85;3.70;;;;;;;-0.75;64.35;100653.34;7351930;19;20018;-73
2023/01/21 04:43:22;;;;;;;14.00;3.55;;;;;;;-0.89;64.57;100655.22;7365583;19;20014;-73
2023/01/21 04:45:46;;;;;;;5.53;2.78;;;;;;;-0.97;64.68;100657.03;7353541;19;20014;-74
2023/01/21 04:48:11;;;;;;;5.97;3.65;;;;;;;-1.05;64.92;100664.09;7351043;19;20014;-73
2023/01/21 04:50:36;;;;;;;4.97;2.15;;;;;;;-1.02;65.68;100661.47;7354408;19;20010;-72
2023/01/21 04:53:00;;;;;;;10.35;3.30;;;;;;;-1.01;64.49;100665.78;7363068;19;20109;-73
2023/01/21 04:55:25;;;;;;;5.22;3.20;;;;;;;-1.05;64.92;100670.22;7363369;19;20014;-72
2023/01/21 04:57:50;;;;;;;2.55;1.95;;;;;;;-0.79;63.73;100675.22;7364677;19;20465;-72
2023/01/21 05:00:15;;;;;;;6.85;2.58;;;;;;;-0.96;64.04;100674.50;7362192;19;20006;-71
2023/01/21 05:02:40;;;;;;;8.18;4.38;;;;;;;-1.07;64.12;100679.81;7356827;19;20017;-72
2023/01/21 05:05:05;;;;;;;7.25;3.20;;;;;;;-1.04;63.50;100686.78;7353412;19;20006;-70
2023/01/21 05:07:29;;;;;;;6.22;2.83;;;;;;;-1.21;64.25;100679.91;7362699;19;20014;-72
2023/01/21 05:09:54;;;;;;;6.45;2.92;;;;;;;-1.23;64.49;100684.28;7358434;19;20017;-72
2023/01/21 05:12:19;;;;;;;7.70;2.95;;;;;;;-1.08;63.83;100687.66;7361220;19;20025;-71
2023/01/21 05:14:43;;;;;;;5.18;2.63;;;;;;;-1.04;62.85;100684.16;7362109;19;20015;-70
2023/01/21 05:17:08;;;;;;;12.27;1.80;;;;;;;-1.11;63.03;100676.34;7361315;19;20018;-71
2023/01/21 05:19:33;;;;;;;15.57;5.13;;;;;;;-1.33;63.58;100692.19;7359361;19;20483;-73
2023/01/21 05:21:58;;;;;;;7.78;2.25;;;;;;;-1.32;63.92;100694.81;7360444;19;20076;-74
2023/01/21 05:24:22;;;;;;;9.30;2.10;;;;;;;-1.36;64.61;100695.72;7363517;19;20010;-72
2023/01/21 05:26:48;;;;;;;8.25;3.35;;;;;;;-1.36;64.05;100695.72;7365018;19;20022;-73
2023/01/21 05:29:13;;;;;;;6.05;2.92;;;;;;;-1.39;64.32;100693.13;7365109;19;20022;-72
2023/01/21 05:31:37;;;;;;;6.55;2.70;;;;;;;-1.35;64.52;100714.88;7351132;19;20046;-74
2023/01/21 05:34:02;;;;;;;5.32;2.72;;;;;;;-1.41;64.44;100713.19;7352527;19;20014;-73
2023/01/21 05:36:27;;;;;;;6.78;3.38;;;;;;;-1.55;64.84;100709.75;7351080;19;20041;-71
2023/01/21 05:38:52;;;;;;;14.02;5.57;;;;;;;-1.56;64.90;100719.34;7346138;19;20069;-70
2023/01/21 05:41:16;;;;;;;8.98;3.40;;;;;;;-1.66;65.26;100719.41;7348104;19;20007;-70
2023/01/21 05:43:41;;;;;;;10.90;3.20;;;;;;;-1.54;65.42;100727.19;7348470;19;20370;-70
2023/01/21 05:46:06;;;;;;;4.35;3.03;;;;;;;-1.46;65.29;100728.88;7347480;19;20019;-70
2023/01/21 05:48:30;;;;;;;7.88;3.28;;;;;;;-1.55;64.92;100739.41;7348376;19;20003;-71
2023/01/21 05:50:55;;;;;;;7.25;3.05;;;;;;;-1.66;65.38;100735.09;7346183;19;20107;-70
2023/01/21 05:53:20;;;;;;;4.30;2.83;;;;;;;-1.69;65.54;100735.13;7347675;19;20011;-71
2023/01/21 05:55:45;;;;;;;6.63;3.47;;;;;;;-1.65;65.31;100744.69;7348852;19;20026;-68
2023/01/21 05:58:10;;;;;;;6.22;3.58;;;;;;;-1.60;65.75;100742.94;7355446;19;20015;-68
2023/01/21 06:00:34;;;;;;;8.15;2.35;;;;;;;-1.35;64.62;100743.66;7357666;19;20022;-71
2023/01/21 06:03:00;;;;;;;6.18;3.42;;;;;;;-1.44;64.04;100747.19;7356674;19;20021;-68
2023/01/21 06:05:25;;;;;;;8.52;3.88;;;;;;;-1.47;63.80;100749.84;7348131;19;20015;-73
2023/01/21 06:07:50;;;;;;;4.95;2.83;;;;;;;-1.56;63.73;100744.63;7345899;19;20094;-68
2023/01/21 06:10:15;;;;;;;6.85;2.60;;;;;;;-1.57;64.02;100745.50;7348295;19;20444;-70
2023/01/21 06:12:39;;;;;;;4.45;1.83;;;;;;;-1.35;63.57;100754.09;7347662;19;20019;-72
2023/01/21 06:15:05;;;;;;;6.63;3.88;;;;;;;-1.54;63.29;100748.13;7347950;19;20006;-71
2023/01/21 06:17:29;;;;;;;6.78;3.03;;;;;;;-1.62;63.97;100756.00;7348365;19;20007;-74
2023/01/21 06:19:54;;;;;;;14.57;4.10;;;;;;;-1.58;63.48;100754.25;7346295;19;20014;-74
2023/01/21 06:22:18;;;;;;;6.50;3.97;;;;;;;-1.50;63.28;100755.94;7348306;19;20003;-73
2023/01/21 06:24:43;;;;;;;8.77;3.50;;;;;;;-1.69;63.72;100756.88;7348651;19;20010;-73
2023/01/21 06:27:08;;;;;;;8.10;3.85;;;;;;;-1.83;64.24;100761.31;7346855;19;20777;-72
2023/01/21 06:29:32;;;;;;;4.97;3.00;;;;;;;-1.65;64.39;100760.38;7347812;19;20013;-72
2023/01/21 06:31:57;;;;;;;4.32;3.10;;;;;;;-1.75;64.70;100758.66;7344607;19;20022;-73
2023/01/21 06:34:22;;;;;;;7.25;3.40;;;;;;;-1.74;64.80;100763.03;7347688;19;20015;-73
2023/01/21 06:36:46;;;;;;;3.40;2.85;;;;;;;-1.70;65.43;100754.31;7347383;19;20019;-73
2023/01/21 06:39:11;;;;;;;9.80;2.08;;;;;;;-1.47;64.75;100757.69;7347336;19;20495;-71
2023/01/21 06:41:36;;;;;;;8.55;3.20;;;;;;;-1.43;63.75;100766.38;7344235;19;20010;-69
2023/01/21 06:44:02;;;;;;;10.30;3.28;;;;;;;-1.51;63.88;100782.09;7343483;19;20022;-72
2023/01/21 06:46:27;;;;;;;11.80;4.30;;;;;;;-1.56;63.74;100778.63;7343919;19;20018;-70
2023/01/21 06:48:52;;;;;;;4.13;2.80;;;;;;;-1.62;64.58;100778.66;7345565;19;20006;-70
2023/01/21 06:51:17;;;;;;;9.07;3.78;;;;;;;-1.60;64.76;100792.59;7343946;19;20021;-71
2023/01/21 06:53:41;;;;;;;11.85;4.68;;;;;;;-1.50;63.64;100783.84;7343895;19;20066;-71
2023/01/21 06:56:06;;;;;;;3.53;2.88;;;;;;;-1.49;64.37;100793.44;7344748;19;20362;-72
2023/01/21 06:58:31;;;;;;;6.68;3.97;;;;;;;-1.46;63.69;100785.56;7345967;19;20015;-71
2023/01/21 07:00:56;;;;;;;4.22;2.20;;;;;;;-1.36;63.45;100783.78;7341851;19;20014;-72
2023/01/21 07:03:21;;;;;;;6.20;3.63;;;;;;;-1.41;62.50;100796.88;7345530;19;20014;-71
2023/01/21 07:05:46;;;;;;;5.88;3.65;;;;;;;-1.44;63.14;100794.25;7344654;19;20021;-70
2023/01/21 07:08:10;;;;;;;6.53;4.53;;;;;;;-1.53;62.74;100796.91;7345231;19;20345;-71
2023/01/21 07:10:35;;;;;;;7.47;3.95;;;;;;;-1.56;63.21;100802.16;7344318;19;20011;-72
2023/01/21 07:12:59;;;;;;;7.30;3.80;;;;;;;-1.58;63.73;100810.00;7352724;19;20014;-72
2023/01/21 07:15:24;;;;;;;12.77;4.63;;;;;;;-1.60;63.44;100798.69;7356958;19;20041;-71
2023/01/21 07:17:49;;;;;;;6.10;3.92;;;;;;;-1.68;63.80;100813.53;7344347;19;20021;-71
2023/01/21 07:20:14;;;;;;;5.68;3.20;;;;;;;-1.53;64.03;100812.63;7344639;19;20031;-71
2023/01/21 07:22:39;;;;;;;8.30;3.75;;;;;;;-1.55;64.03;100823.06;7342669;19;20014;-70
2023/01/21 07:25:05;;;;;;;4.95;3.25;;;;;;;-1.44;64.60;100816.94;7359351;19;20021;-71
2023/01/21 07:27:29;;;;;;;6.75;3.17;;;;;;;-1.35;64.50;100817.75;7360754;19;20021;-72
2023/01/21 07:29:54;;;;;;;5.55;2.88;;;;;;;-1.21;63.74;100822.94;7354458;19;20011;-72
2023/01/21 07:32:18;;;;;;;8.45;4.97;;;;;;;-1.29;62.81;100814.25;7344234;19;20006;-72
2023/01/21 07:34:43;;;;;;;5.68;3.40;;;;;;;-1.22;62.91;100819.44;7345899;19;20078;-71
2023/01/21 07:37:08;;;;;;;13.38;3.90;;;;;;;-1.39;62.55;100810.81;7344595;19;20090;-71
2023/01/21 07:39:32;;;;;;;9.30;4.45;;;;;;;-1.28;63.23;100822.09;7349228;19;20014;-70
2023/01/21 07:41:57;;;;;;;5.93;3.80;;;;;;;-1.24;62.17;100826.41;7351635;19;20018;-68
2023/01/21 07:44:24;;;;;;;8.60;5.20;;;;;;;-1.31;62.30;100831.69;7348773;19;20010;-73
2023/01/21 07:46:49;;;;;;;9.20;4.47;;;;;;;-1.28;62.45;100813.38;7343763;19;20479;-72
2023/01/21 07:49:16;;;;;;;5.22;3.20;;;;;;;-1.28;62.80;100824.72;7343601;19;20077;-70
2023/01/21 07:51:41;;;;;;;7.45;4.25;;;;;;;-1.18;63.01;100833.38;7345506;19;20074;-72
2023/01/21 07:54:06;;;;;;;6.57;3.95;;;;;;;-1.06;62.30;100819.38;7344912;19;20458;-73
2023/01/21 07:56:30;;;;;;;7.63;3.47;;;;;;;-1.01;62.04;100818.44;7347802;19;20031;-72
2023/01/21 07:58:55;;;;;;;10.73;4.07;;;;;;;-1.11;62.13;100825.50;7354264;19;20019;-74
2023/01/21 08:01:20;;;;;;;8.85;3.00;;;;;;;-1.00;61.68;100817.56;7352720;19;20023;-73
2023/01/21 08:03:45;;;;;;;4.93;1.70;;;;;;;-0.87;60.84;100832.34;7366023;19;20040;-74
2023/01/21 08:06:09;;;;;;;4.13;2.00;;;;;;;-0.85;59.95;100824.47;7378726;19;20022;-73
2023/01/21 08:08:34;;;;;;;8.52;4.15;;;;;;;-1.10;60.22;100828.97;7378642;19;20028;-71
2023/01/21 08:10:59;;;;;;;3.15;2.28;;;;;;;-0.92;60.89;100841.13;7375863;19;20006;-72
2023/01/21 08:13:25;;;;;;;8.35;3.70;;;;;;;-0.94;60.54;100841.13;7373909;19;20042;-70
2023/01/21 08:15:55;;;;;;;11.10;4.70;;;;;;;-0.96;59.49;100844.59;7381481;19;20013;-72
2023/01/21 08:18:21;;;;;;;3.10;2.45;;;;;;;-0.94;60.11;100841.13;7379055;19;20010;-70
2023/01/21 08:20:45;;;;;;;7.40;4.28;;;;;;;-0.99;60.06;100829.78;7379308;19;20057;-73
2023/01/21 08:23:10;;;;;;;9.93;5.30;;;;;;;-1.08;60.33;100848.16;7381553;19;20006;-72
2023/01/21 08:25:35;;;;;;;7.50;3.97;;;;;;;-1.10;60.86;100839.44;7378685;19;20040;-71
2023/01/21 08:28:00;;;;;;;5.53;3.45;;;;;;;-0.95;61.38;100838.50;7376201;19;20006;-75
2023/01/21 08:30:25;;;;;;;6.93;3.53;;;;;;;-0.89;60.15;100835.84;7373552;19;20387;-73
2023/01/21 08:32:49;;;;;;;7.18;3.15;;;;;;;-0.95;60.84;100843.72;7365292;19;20032;-73
2023/01/21 08:35:14;;;;;;;8.38;3.17;;;;;;;-0.81;60.43;100842.78;7375030;19;20018;-72
2023/01/21 08:37:39;;;;;;;5.65;3.08;;;;;;;-0.72;59.77;100847.09;7369769;19;20018;-72
2023/01/21 08:40:04;;;;;;;8.18;4.25;;;;;;;-0.86;59.27;100843.69;7365495;19;20405;-70
2023/01/21 08:42:29;;;;;;;6.90;4.20;;;;;;;-0.92;59.57;100847.22;7367220;19;20019;-74
2023/01/21 08:44:53;;;;;;;6.68;4.07;;;;;;;-1.01;59.83;100844.63;7374130;19;20078;-70
2023/01/21 08:47:18;;;;;;;5.47;2.92;;;;;;;-0.90;60.31;100860.28;7371138;19;20062;-69
2023/01/21 08:49:43;;;;;;;5.85;3.53;;;;;;;-0.90;59.71;100847.19;7371331;19;20014;-69
2023/01/21 08:52:09;;;;;;;3.38;2.00;;;;;;;-0.80;59.83;100846.28;7363477;19;20039;-69
2023/01/21 08:54:33;;;;;;;6.97;3.67;;;;;;;-0.94;59.94;100842.88;7366239;19;20010;-69
2023/01/21 08:56:58;;;;;;;6.55;3.45;;;;;;;-0.88;60.36;100851.53;7363951;19;20050;-72
2023/01/21 08:59:27;;;;;;;3.65;2.13;;;;;;;-0.81;60.70;100844.53;7356196;19;20010;-70
2023/01/21 09:01:52;;;;;;;6.53;4.45;;;;;;;-0.84;59.51;100842.78;7355205;19;20003;-70
2023/01/21 09:04:16;;;;;;;4.53;2.97;;;;;;;-0.77;59.17;100843.63;7364749;19;20031;-69
2023/01/21 09:06:41;;;;;;;11.75;4.53;;;;;;;-0.90;59.16;100834.09;7365773;19;20011;-69
2023/01/21 09:09:05;;;;;;;12.18;3.90;;;;;;;-0.90;59.60;100839.31;7361401;19;20041;-73
2023/01/21 09:11:30;;;;;;;7.35;2.95;;;;;;;-0.75;59.45;100836.63;7360950;19;20015;-71
2023/01/21 09:13:59;;;;;;;4.68;3.05;;;;;;;-0.72;59.43;100836.63;7376546;19;20006;-72
2023/01/21 09:16:24;;;;;;;13.13;3.85;;;;;;;-0.82;59.40;100855.88;7365876;19;20015;-73
2023/01/21 09:18:49;;;;;;;9.35;4.10;;;;;;;-0.87;59.52;100841.94;7358988;19;20006;-73
2023/01/21 09:21:15;;;;;;;8.10;3.80;;;;;;;-0.85;59.11;100854.16;7357691;19;20082;-74
2023/01/21 09:23:40;;;;;;;7.25;4.22;;;;;;;-0.94;59.64;100841.13;7363686;19;20344;-75
2023/01/21 09:26:08;;;;;;;3.45;2.65;;;;;;;-0.87;60.69;100840.19;7355304;19;20039;-74
2023/01/21 09:28:36;;;;;;;9.25;4.43;;;;;;;-0.74;59.52;100848.84;7352687;19;20015;-75
2023/01/21 09:31:06;;;;;;;5.43;3.85;;;;;;;-0.66;58.66;100831.31;7352913;19;20042;-75
2023/01/21 09:33:34;;;;;;;5.32;3.60;;;;;;;-0.83;59.06;100836.69;7359841;19;20048;-75
2023/01/21 09:36:00;;;;;;;6.05;3.28;;;;;;;-0.87;59.31;100841.94;7350927;19;20025;-74
2023/01/21 09:38:26;;;;;;;10.07;4.70;;;;;;;-0.85;59.30;100834.94;7350983;19;20003;-75
2023/01/21 09:40:52;;;;;;;7.88;3.65;;;;;;;-0.80;59.12;100848.91;7356095;19;20024;-75
2023/01/21 09:43:41;;;;;;;11.07;4.60;;;;;;;-0.74;59.25;100843.59;7355415;19;20013;-75
2023/01/21 09:46:16;;;;;;;9.45;4.82;;;;;;;-0.65;58.77;100843.53;7351016;19;20006;-75
2023/01/21 09:48:45;;;;;;;8.75;3.90;;;;;;;-0.67;58.80;100847.91;7351272;19;20130;-73
2023/01/21 09:51:18;;;;;;;9.32;4.85;;;;;;;-0.72;58.53;100841.84;7347023;19;20014;-74
2023/01/21 09:53:55;;;;;;;5.00;2.47;;;;;;;-0.67;58.75;100849.66;7350676;19;20025;-75
2023/01/21 09:56:23;;;;;;;12.95;4.53;;;;;;;-0.74;58.79;100848.84;7347248;19;20012;-75
2023/01/21 09:59:00;;;;;;;5.18;2.85;;;;;;;-0.69;58.38;100847.06;7350097;19;20023;-74
2023/01/21 10:01:33;;;;;;;5.70;3.03;;;;;;;-0.64;57.73;100853.13;7345797;19;20015;-74
2023/01/21 10:04:06;;;;;;;1.58;1.23;;;;;;;-0.66;58.18;100847.03;7346666;19;20461;-70
2023/01/21 10:06:43;;;;;;;3.33;2.75;;;;;;;-0.79;57.94;100848.03;7347102;19;20075;-71
2023/01/21 10:09:40;;;;;;;7.55;3.90;;;;;;;-0.79;58.13;100838.38;7347079;19;20100;-70
2023/01/21 10:12:19;;;;;;;4.20;2.85;;;;;;;-0.67;57.65;100833.94;7346533;19;20045;-71
2023/01/21 10:15:11;;;;;;;5.20;3.50;;;;;;;-0.86;58.09;100846.28;7346843;19;20026;-71
2023/01/21 10:18:17;;;;;;;9.60;3.28;;;;;;;-0.76;58.68;100842.75;7346890;19;20091;-71
2023/01/21 10:20:54;;;;;;;9.63;4.30;;;;;;;-0.82;58.40;100820.09;7346493;19;20022;-71
2023/01/21 10:23:41;;;;;;;5.38;2.72;;;;;;;-0.69;57.98;100833.97;7346023;19;20480;-71
2023/01/21 10:26:10;;;;;;;4.35;2.80;;;;;;;-0.77;57.69;100828.78;7346805;19;20018;-71
2023/01/21 10:28:38;;;;;;;9.43;2.67;;;;;;;-0.81;57.31;100821.84;7344291;19;20104;-71
2023/01/21 10:31:15;;;;;;;8.77;3.83;;;;;;;-0.91;57.25;100829.75;7344819;19;20050;-71
2023/01/21 10:33:40;;;;;;;7.35;3.45;;;;;;;-1.04;57.86;100817.63;7345581;19;20347;-72
2023/01/21 10:36:32;;;;;;;5.60;3.53;;;;;;;-0.78;58.15;100819.19;7344406;19;20022;-70
2023/01/21 10:39:27;;;;;;;2.72;2.00;;;;;;;-0.63;57.25;100826.06;7342871;19;20018;-72
2023/01/21 10:42:05;;;;;;;6.57;3.83;;;;;;;-0.85;56.32;100822.72;7345767;19;20032;-72
2023/01/21 10:44:32;;;;;;;6.95;3.60;;;;;;;-0.95;57.44;100822.78;7345151;19;20136;-72
2023/01/21 10:47:06;;;;;;;5.68;3.25;;;;;;;-0.90;58.05;100821.00;7346529;19;20026;-73
2023/01/21 10:49:55;;;;;;;7.43;4.23;;;;;;;-0.80;57.46;100807.88;7346496;19;20025;-73
2023/01/21 10:52:37;;;;;;;3.53;1.77;;;;;;;-0.80;57.81;100813.13;7344623;19;20600;-72
2023/01/21 10:55:17;;;;;;;5.80;3.30;;;;;;;-0.94;57.93;100814.06;7345735;19;20092;-74
2023/01/21 10:58:02;;;;;;;8.65;3.72;;;;;;;-0.95;58.25;100815.81;7347088;19;20006;-73
2023/01/21 11:00:32;;;;;;;7.18;3.50;;;;;;;-0.96;58.47;100813.22;7347563;19;20046;-73
2023/01/21 11:03:07;;;;;;;6.85;3.10;;;;;;;-0.84;58.15;100803.53;7347455;19;20011;-71
2023/01/21 11:05:32;;;;;;;7.30;3.78;;;;;;;-0.93;58.53;100810.56;7345942;19;20030;-72
2023/01/21 11:07:58;;;;;;;9.57;3.78;;;;;;;-0.91;58.80;100809.69;7346079;19;20026;-71
2023/01/21 11:10:25;;;;;;;10.07;3.63;;;;;;;-0.70;58.72;100815.66;7345328;19;20036;-73
2023/01/21 11:12:53;;;;;;;11.45;3.30;;;;;;;-0.80;58.38;100818.34;7346319;19;20014;-72
2023/01/21 11:15:20;;;;;;;7.32;4.00;;;;;;;-0.76;58.83;100798.22;7346264;19;20022;-73
2023/01/21 11:17:48;;;;;;;6.13;2.45;;;;;;;-0.67;59.82;100806.00;7346238;19;20014;-72
2023/01/21 11:20:27;;;;;;;7.28;3.22;;;;;;;-0.73;59.39;100804.31;7345481;19;20564;-74
2023/01/21 11:22:51;;;;;;;24.45;3.00;;;;;;;-0.71;59.81;100799.09;7344804;19;20014;-73
2023/01/21 11:25:39;;;;;;;29.77;6.88;;;;;;;-0.70;59.90;100807.81;7348648;19;20022;-72
2023/01/21 11:28:04;;;;;;;7.60;4.35;;;;;;;-0.63;59.84;100799.88;7349578;19;20033;-72
2023/01/21 11:30:34;;;;;;;10.60;3.95;;;;;;;-0.73;59.69;100804.31;7345810;19;20473;-75
2023/01/21 11:33:20;;;;;;;5.35;3.05;;;;;;;-0.51;60.08;100802.41;7343957;19;20015;-72